createdAt,value
2023-03-15T00:01:08.508Z,99713.50
2023-03-15T00:03:39.845Z,99716.34
2023-03-15T00:06:07.420Z,99721.22
2023-03-15T00:08:35.022Z,99731.19
2023-03-15T00:11:02.884Z,99739.69
2023-03-15T00:13:30.828Z,99741.63
2023-03-15T00:16:00.730Z,99748.28
2023-03-15T00:18:28.225Z,99748.84
2023-03-15T00:20:55.909Z,99756.09
2023-03-15T00:23:23.357Z,99762.78
2023-03-15T00:25:52.546Z,99750.22
2023-03-15T00:28:20.413Z,99753.38
2023-03-15T00:30:48.076Z,99759.41
2023-03-15T00:33:16.606Z,99762.44
2023-03-15T00:35:45.594Z,99766.50
2023-03-15T00:38:14.285Z,99762.44
2023-03-15T00:40:42.780Z,99766.88
2023-03-15T00:43:10.126Z,99778.19
2023-03-15T00:45:37.518Z,99781.94
2023-03-15T00:48:05.322Z,99777.50
2023-03-15T00:50:32.603Z,99781.38
2023-03-15T00:52:59.939Z,99789.28
2023-03-15T00:55:29.342Z,99795.41
2023-03-15T00:57:57.178Z,99788.59
2023-03-15T01:00:25.179Z,99797.88
2023-03-15T01:02:55.477Z,99802.06
2023-03-15T01:05:22.972Z,99802.75
2023-03-15T01:07:51.920Z,99791.75
2023-03-15T01:10:19.686Z,99796.75
2023-03-15T01:12:46.988Z,99798.91
2023-03-15T01:15:15.750Z,99804.06
2023-03-15T01:17:44.372Z,99806.91
2023-03-15T01:20:15.361Z,99799.78
2023-03-15T01:22:43.217Z,99790.69
2023-03-15T01:25:10.760Z,99797.94
2023-03-15T01:27:38.297Z,99802.13
2023-03-15T01:30:07.078Z,99796.69
2023-03-15T01:32:34.894Z,99798.75
2023-03-15T01:35:02.308Z,99787.63
2023-03-15T01:37:29.705Z,99797.13
2023-03-15T01:39:57.362Z,99794.16
2023-03-15T01:42:24.723Z,99793.44
2023-03-15T01:44:59.934Z,99795.03
2023-03-15T01:47:28.606Z,99803.53
2023-03-15T01:50:04.630Z,99801.66
2023-03-15T01:52:36.030Z,99807.34
2023-03-15T01:55:14.910Z,99802.31
2023-03-15T01:57:58.936Z,99805.81
2023-03-15T02:00:28.640Z,99806.75
2023-03-15T02:03:08.088Z,99805.63
2023-03-15T02:05:46.309Z,99796.56
2023-03-15T02:08:19.735Z,99799.19
2023-03-15T02:10:51.573Z,99802.97
2023-03-15T02:13:24.125Z,99797.88
2023-03-15T02:15:53.662Z,99792.91
2023-03-15T02:18:26.550Z,99792.75
2023-03-15T02:21:06.454Z,99793.09
2023-03-15T02:23:34.734Z,99807.34
2023-03-15T02:26:16.709Z,99802.13
2023-03-15T02:28:44.448Z,99797.38
2023-03-15T02:31:13.830Z,99788.50
2023-03-15T02:33:50.681Z,99784.22
2023-03-15T02:36:29.833Z,99793.78
2023-03-15T02:38:57.497Z,99799.91
2023-03-15T02:41:30.674Z,99796.72
2023-03-15T02:44:06.539Z,99802.94
2023-03-15T02:46:34.482Z,99801.09
2023-03-15T02:49:07.816Z,99796.38
2023-03-15T02:51:35.137Z,99802.94
2023-03-15T02:54:02.640Z,99801.56
2023-03-15T02:56:30.001Z,99803.47
2023-03-15T02:58:57.651Z,99803.13
2023-03-15T03:01:25.148Z,99812.75
2023-03-15T03:03:52.453Z,99810.41
2023-03-15T03:06:20.339Z,99817.56
2023-03-15T03:08:48.492Z,99827.97
2023-03-15T03:11:19.274Z,99825.59
2023-03-15T03:13:46.755Z,99820.34
2023-03-15T03:16:14.133Z,99827.22
2023-03-15T03:18:43.134Z,99828.66
2023-03-15T03:21:10.692Z,99836.34
2023-03-15T03:23:38.112Z,99827.09
2023-03-15T03:26:16.593Z,99836.66
2023-03-15T03:28:47.546Z,99841.81
2023-03-15T03:31:26.410Z,99837.38
2023-03-15T03:33:58.374Z,99837.72
2023-03-15T03:36:26.464Z,99835.47
2023-03-15T03:38:54.105Z,99846.97
2023-03-15T03:41:22.361Z,99856.25
2023-03-15T03:43:49.924Z,99859.31
2023-03-15T03:46:17.805Z,99858.97
2023-03-15T03:48:49.873Z,99858.78
2023-03-15T03:51:17.223Z,99870.53
2023-03-15T03:53:44.499Z,99872.16
2023-03-15T03:56:12.583Z,99882.00
2023-03-15T03:58:39.934Z,99880.59
2023-03-15T04:01:14.974Z,99883.78
2023-03-15T04:03:42.400Z,99880.09
2023-03-15T04:06:14.521Z,99887.72
2023-03-15T04:08:45.269Z,99885.63
2023-03-15T04:11:18.598Z,99891.72
2023-03-15T04:13:55.418Z,99889.50
2023-03-15T04:16:24.715Z,99889.38
2023-03-15T04:19:05.018Z,99888.34
2023-03-15T04:21:34.448Z,99885.97
2023-03-15T04:24:24.836Z,99888.84
2023-03-15T04:27:06.459Z,99890.72
2023-03-15T04:29:44.760Z,99889.13
2023-03-15T04:32:22.331Z,99891.06
2023-03-15T04:34:58.163Z,99890.88
2023-03-15T04:37:51.874Z,99889.91
2023-03-15T04:40:42.872Z,99891.00
2023-03-15T04:43:36.488Z,99888.63
2023-03-15T04:46:32.072Z,99894.53
2023-03-15T04:49:18.082Z,99897.72
2023-03-15T04:52:07.980Z,99901.91
2023-03-15T04:54:39.283Z,99913.69
2023-03-15T04:57:23.656Z,99913.25
2023-03-15T05:00:12.901Z,99926.44
2023-03-15T05:03:00.409Z,99916.72
2023-03-15T05:05:42.152Z,99930.25
2023-03-15T05:08:41.755Z,99933.16
2023-03-15T05:11:24.518Z,99935.38
2023-03-15T05:14:07.892Z,99942.56
2023-03-15T05:16:55.996Z,99951.00
2023-03-15T05:19:44.856Z,99943.97
2023-03-15T05:22:32.425Z,99950.81
2023-03-15T05:25:18.170Z,99953.69
2023-03-15T05:28:04.928Z,99938.56
2023-03-15T05:30:55.378Z,99950.53
2023-03-15T05:33:54.559Z,99967.25
2023-03-15T05:36:37.625Z,99960.72
2023-03-15T05:39:24.068Z,99975.03
2023-03-15T05:42:15.797Z,99984.25
2023-03-15T05:45:12.372Z,100000.16
2023-03-15T05:47:53.378Z,100000.00
2023-03-15T05:50:37.564Z,100008.72
2023-03-15T05:53:23.956Z,100006.66
2023-03-15T05:56:12.514Z,99999.66
2023-03-15T05:59:02.925Z,100002.56
2023-03-15T06:01:48.671Z,100012.91
2023-03-15T06:04:22.187Z,100008.78
2023-03-15T06:06:49.625Z,100016.47
2023-03-15T06:09:19.770Z,100014.81
2023-03-15T06:11:47.723Z,100011.78
2023-03-15T06:14:15.075Z,100036.47
2023-03-15T06:16:48.873Z,100039.38
2023-03-15T06:19:16.209Z,100042.13
2023-03-15T06:21:43.990Z,100048.72
2023-03-15T06:24:17.958Z,100044.50
2023-03-15T06:26:45.587Z,100047.03
2023-03-15T06:29:13.088Z,100052.63
2023-03-15T06:31:40.934Z,100058.91
2023-03-15T06:34:10.293Z,100056.97
2023-03-15T06:36:37.701Z,100049.28
2023-03-15T06:39:05.728Z,100047.53
2023-03-15T06:41:33.120Z,100053.09
2023-03-15T06:44:08.554Z,100056.59
2023-03-15T06:46:37.561Z,100051.81
2023-03-15T06:49:06.552Z,100056.78
2023-03-15T06:51:34.168Z,100058.47
2023-03-15T06:54:01.532Z,100063.22
2023-03-15T06:56:30.510Z,100062.88
2023-03-15T06:58:57.780Z,100064.06
2023-03-15T07:01:25.189Z,100073.03
2023-03-15T07:03:52.474Z,100067.94
2023-03-15T07:06:20.976Z,100066.25
2023-03-15T07:08:48.348Z,100062.53
2023-03-15T07:11:15.733Z,100071.03
2023-03-15T07:13:43.857Z,100067.28
2023-03-15T07:16:11.223Z,100064.09
2023-03-15T07:18:38.562Z,100072.13
2023-03-15T07:21:08.172Z,100068.94
2023-03-15T07:23:35.686Z,100079.78
2023-03-15T07:26:03.083Z,100085.28
2023-03-15T07:28:30.453Z,100091.28
2023-03-15T07:31:00.207Z,100095.47
2023-03-15T07:33:29.396Z,100100.91
2023-03-15T07:35:57.395Z,100092.28
2023-03-15T07:38:29.196Z,100090.47
2023-03-15T07:40:58.007Z,100088.59
2023-03-15T07:43:25.355Z,100099.03
2023-03-15T07:46:06.924Z,100110.06
2023-03-15T07:48:34.315Z,100106.16
2023-03-15T07:51:01.753Z,100120.69
2023-03-15T07:53:29.567Z,100119.69
2023-03-15T07:55:56.998Z,100129.59
2023-03-15T07:58:24.303Z,100137.03
2023-03-15T08:00:54.835Z,100133.97
2023-03-15T08:03:24.155Z,100141.19
2023-03-15T08:05:51.563Z,100145.94
2023-03-15T08:08:19.156Z,100155.00
2023-03-15T08:10:46.892Z,100148.38
2023-03-15T08:13:14.366Z,100165.56
2023-03-15T08:15:44.998Z,100162.47
2023-03-15T08:18:12.318Z,100158.50
2023-03-15T08:20:39.724Z,100166.00
2023-03-15T08:23:07.470Z,100171.16
2023-03-15T08:25:40.642Z,100165.31
2023-03-15T08:28:08.283Z,100179.91
2023-03-15T08:30:35.798Z,100180.22
2023-03-15T08:33:03.777Z,100189.22
2023-03-15T08:35:33.083Z,100193.47
2023-03-15T08:38:02.649Z,100195.94
2023-03-15T08:40:30.591Z,100199.81
2023-03-15T08:42:58.390Z,100205.13
2023-03-15T08:45:26.785Z,100214.78
2023-03-15T08:47:57.852Z,100207.69
2023-03-15T08:50:26.302Z,100214.72
2023-03-15T08:52:54.087Z,100219.94
2023-03-15T08:55:21.641Z,100232.78
2023-03-15T08:57:49.322Z,100240.91
2023-03-15T09:00:27.073Z,100240.72
2023-03-15T09:02:55.095Z,100251.94
2023-03-15T09:05:24.763Z,100261.53
2023-03-15T09:07:53.218Z,100264.84
2023-03-15T09:10:22.167Z,100258.91
2023-03-15T09:12:53.546Z,100270.31
2023-03-15T09:15:21.698Z,100266.16
2023-03-15T09:17:51.136Z,100272.66
2023-03-15T09:20:21.865Z,100275.38
2023-03-15T09:22:57.586Z,100273.81
2023-03-15T09:25:25.881Z,100283.66
2023-03-15T09:27:53.584Z,100299.13
2023-03-15T09:30:21.304Z,100297.44
2023-03-15T09:32:48.890Z,100298.59
2023-03-15T09:35:18.804Z,100301.88
2023-03-15T09:37:47.770Z,100302.38
2023-03-15T09:40:24.111Z,100311.97
2023-03-15T09:43:04.868Z,100315.38
2023-03-15T09:45:50.441Z,100320.09
2023-03-15T09:48:46.924Z,100330.47
2023-03-15T09:51:21.755Z,100321.91
2023-03-15T09:54:00.828Z,100327.56
2023-03-15T09:56:39.178Z,100325.38
2023-03-15T09:59:07.050Z,100322.91
2023-03-15T10:01:39.697Z,100323.44
2023-03-15T10:04:30.180Z,100334.06
2023-03-15T10:07:01.587Z,100329.53
2023-03-15T10:09:35.970Z,100327.44
2023-03-15T10:12:12.436Z,100339.13
2023-03-15T10:14:58.197Z,100342.69
2023-03-15T10:18:14.281Z,100344.03
2023-03-15T10:20:50.099Z,100338.91
2023-03-15T10:23:30.852Z,100338.97
2023-03-15T10:25:58.257Z,100345.44
2023-03-15T10:28:31.256Z,100336.41
2023-03-15T10:31:09.607Z,100337.13
2023-03-15T10:33:39.055Z,100339.50
2023-03-15T10:36:25.503Z,100335.66
2023-03-15T10:38:53.171Z,100343.13
2023-03-15T10:41:38.886Z,100345.81
2023-03-15T10:44:24.384Z,100355.97
2023-03-15T10:47:23.094Z,100358.22
2023-03-15T10:49:57.264Z,100368.78
2023-03-15T10:52:41.780Z,100377.75
2023-03-15T10:55:16.575Z,100378.44
2023-03-15T10:57:56.133Z,100395.38
2023-03-15T11:00:31.832Z,100396.06
2023-03-15T11:03:02.315Z,100398.13
2023-03-15T11:05:32.579Z,100392.41
2023-03-15T11:08:01.128Z,100403.00
2023-03-15T11:10:33.752Z,100415.59
2023-03-15T11:13:24.460Z,100448.28
2023-03-15T11:16:11.169Z,100455.16
2023-03-15T11:18:57.388Z,100467.69
2023-03-15T11:21:34.157Z,100484.25
2023-03-15T11:24:04.305Z,100491.94
2023-03-15T11:26:36.846Z,100493.03
2023-03-15T11:29:10.383Z,100501.91
2023-03-15T11:31:38.145Z,100519.94
2023-03-15T11:34:51.649Z,100501.22
2023-03-15T11:37:32.372Z,100518.81
2023-03-15T11:40:17.380Z,100510.19
2023-03-15T11:43:14.768Z,100496.88
2023-03-15T11:45:49.259Z,100498.75
2023-03-15T11:49:01.054Z,100506.63
2023-03-15T11:51:33.657Z,100502.91
2023-03-15T11:54:06.507Z,100500.91
2023-03-15T11:56:53.947Z,100499.63
2023-03-15T11:59:25.823Z,100502.97
2023-03-15T12:02:05.881Z,100497.09
2023-03-15T12:04:33.648Z,100496.03
2023-03-15T12:07:28.178Z,100502.13
2023-03-15T12:09:56.733Z,100488.22
2023-03-15T12:12:23.917Z,100487.47
2023-03-15T12:15:18.717Z,100494.16
2023-03-15T12:17:50.208Z,100490.41
2023-03-15T12:20:37.764Z,100495.31
2023-03-15T12:23:17.374Z,100492.72
2023-03-15T12:25:55.142Z,100481.09
2023-03-15T12:28:31.578Z,100487.34
2023-03-15T12:31:04.837Z,100485.22
2023-03-15T12:33:43.151Z,100495.94
2023-03-15T12:36:20.049Z,100486.16
2023-03-15T12:39:16.529Z,100487.06
2023-03-15T12:41:46.834Z,100488.13
2023-03-15T12:44:24.494Z,100489.50
2023-03-15T12:46:51.777Z,100485.91
2023-03-15T12:49:24.944Z,100487.13
2023-03-15T12:51:59.490Z,100485.34
2023-03-15T12:54:37.060Z,100473.53
2023-03-15T12:57:05.808Z,100469.56
2023-03-15T13:00:06.353Z,100468.94
2023-03-15T13:02:45.357Z,100471.34
2023-03-15T13:05:18.955Z,100469.59
2023-03-15T13:07:53.925Z,100476.25
2023-03-15T13:10:26.731Z,100470.59
2023-03-15T13:13:11.048Z,100465.03
2023-03-15T13:15:49.565Z,100466.44
2023-03-15T13:18:21.941Z,100471.06
2023-03-15T13:21:11.857Z,100469.66
2023-03-15T13:23:43.096Z,100466.50
2023-03-15T13:26:33.756Z,100477.22
2023-03-15T13:29:14.998Z,100478.16
2023-03-15T13:31:44.225Z,100468.72
2023-03-15T13:34:19.683Z,100464.97
2023-03-15T13:36:53.587Z,100459.31
2023-03-15T13:39:24.858Z,100465.69
2023-03-15T13:41:59.463Z,100464.22
2023-03-15T13:44:30.458Z,100465.63
2023-03-15T13:46:59.105Z,100468.56
2023-03-15T13:49:32.004Z,100475.81
2023-03-15T13:52:02.491Z,100470.44
2023-03-15T13:54:31.723Z,100464.94
2023-03-15T13:57:17.320Z,100474.78
2023-03-15T13:59:50.204Z,100471.22
2023-03-15T14:02:21.992Z,100480.41
2023-03-15T14:04:56.252Z,100468.31
2023-03-15T14:07:34.105Z,100467.59
2023-03-15T14:10:08.804Z,100458.84
2023-03-15T14:12:36.361Z,100453.97
2023-03-15T14:15:03.942Z,100462.72
2023-03-15T14:17:31.701Z,100465.94
2023-03-15T14:20:08.899Z,100467.34
2023-03-15T14:22:36.979Z,100467.28
2023-03-15T14:25:22.012Z,100480.81
2023-03-15T14:27:49.453Z,100480.47
2023-03-15T14:30:25.725Z,100483.91
2023-03-15T14:33:00.049Z,100482.09
2023-03-15T14:35:40.165Z,100495.75
2023-03-15T14:38:32.525Z,100489.81
2023-03-15T14:41:33.167Z,100494.56
2023-03-15T14:44:03.006Z,100502.94
2023-03-15T14:46:31.658Z,100497.91
2023-03-15T14:48:59.011Z,100506.31
2023-03-15T14:51:28.605Z,100503.13
2023-03-15T14:53:57.399Z,100503.78
2023-03-15T14:56:25.626Z,100505.19
2023-03-15T14:58:56.107Z,100500.13
2023-03-15T15:01:27.660Z,100506.28
2023-03-15T15:03:59.780Z,100508.34
2023-03-15T15:06:29.238Z,100509.34
2023-03-15T15:08:58.957Z,100510.53
2023-03-15T15:11:26.924Z,100514.50
2023-03-15T15:13:54.873Z,100514.00
2023-03-15T15:16:22.342Z,100507.88
2023-03-15T15:18:49.864Z,100508.22
2023-03-15T15:21:33.667Z,100511.03
2023-03-15T15:24:07.568Z,100518.41
2023-03-15T15:26:35.979Z,100514.97
2023-03-15T15:29:03.647Z,100509.69
2023-03-15T15:31:34.361Z,100510.84
2023-03-15T15:34:01.997Z,100518.28
2023-03-15T15:36:35.875Z,100511.22
2023-03-15T15:39:07.120Z,100508.94
2023-03-15T15:41:35.164Z,100510.63
2023-03-15T15:44:02.798Z,100517.34
2023-03-15T15:46:30.352Z,100509.13
2023-03-15T15:48:58.764Z,100519.59
2023-03-15T15:51:30.136Z,100525.94
2023-03-15T15:54:02.003Z,100524.81
2023-03-15T15:56:44.321Z,100528.38
2023-03-15T15:59:14.982Z,100527.03
2023-03-15T16:01:58.901Z,100529.97
2023-03-15T16:04:26.889Z,100527.69
2023-03-15T16:06:57.217Z,100544.53
2023-03-15T16:09:26.622Z,100542.91
2023-03-15T16:11:54.253Z,100548.88
2023-03-15T16:14:21.568Z,100543.41
2023-03-15T16:16:49.058Z,100556.91
2023-03-15T16:19:16.379Z,100566.56
2023-03-15T16:21:50.914Z,100561.22
2023-03-15T16:24:23.534Z,100566.34
2023-03-15T16:26:52.730Z,100571.75
2023-03-15T16:29:23.097Z,100567.34
2023-03-15T16:31:51.206Z,100580.91
2023-03-15T16:34:19.827Z,100583.78
2023-03-15T16:36:54.690Z,100578.59
2023-03-15T16:39:22.874Z,100582.44
2023-03-15T16:41:52.088Z,100581.69
2023-03-15T16:44:21.518Z,100588.41
2023-03-15T16:46:49.052Z,100587.06
2023-03-15T16:49:16.883Z,100594.69
2023-03-15T16:51:49.258Z,100599.72
2023-03-15T16:54:30.600Z,100602.63
2023-03-15T16:57:02.124Z,100610.16
2023-03-15T16:59:29.499Z,100619.75
2023-03-15T17:01:57.004Z,100616.53
2023-03-15T17:04:24.404Z,100619.56
2023-03-15T17:09:24.464Z,100629.41
2023-03-15T17:11:52.416Z,100638.69
2023-03-15T17:14:29.457Z,100643.44
2023-03-15T17:16:57.065Z,100649.03
2023-03-15T17:19:24.899Z,100655.22
2023-03-15T17:21:52.978Z,100667.16
2023-03-15T17:24:20.398Z,100660.22
2023-03-15T17:26:48.350Z,100669.56
2023-03-15T17:29:16.439Z,100676.41
2023-03-15T17:31:44.608Z,100682.56
2023-03-15T17:34:12.052Z,100689.38
2023-03-15T17:36:39.880Z,100694.03
2023-03-15T17:39:11.205Z,100697.91
2023-03-15T17:41:42.166Z,100685.16
2023-03-15T17:44:10.783Z,100699.06
2023-03-15T17:46:38.130Z,100699.69
2023-03-15T17:49:07.119Z,100700.88
2023-03-15T17:51:36.920Z,100713.56
2023-03-15T17:54:15.482Z,100722.16
2023-03-15T17:56:43.376Z,100728.72
2023-03-15T17:59:12.225Z,100726.25
2023-03-15T18:01:43.495Z,100741.22
2023-03-15T18:04:15.586Z,100736.09
2023-03-15T18:06:43.231Z,100746.22
2023-03-15T18:09:12.648Z,100751.75
2023-03-15T18:11:42.587Z,100768.84
2023-03-15T18:14:13.634Z,100762.47
2023-03-15T18:16:41.721Z,100765.78
2023-03-15T18:19:09.489Z,100762.78
2023-03-15T18:21:37.124Z,100769.78
2023-03-15T18:24:04.727Z,100774.56
2023-03-15T18:26:32.214Z,100775.34
2023-03-15T18:28:59.595Z,100781.91
2023-03-15T18:31:27.067Z,100786.13
2023-03-15T18:33:54.504Z,100789.63
2023-03-15T18:36:22.295Z,100787.75
2023-03-15T18:38:49.744Z,100790.81
2023-03-15T18:41:23.581Z,100789.59
2023-03-15T18:43:52.022Z,100796.78
2023-03-15T18:46:24.642Z,100810.13
2023-03-15T18:48:54.458Z,100811.91
2023-03-15T18:51:28.293Z,100818.31
2023-03-15T18:53:56.079Z,100828.41
2023-03-15T18:56:26.076Z,100826.03
2023-03-15T18:58:54.366Z,100835.50
2023-03-15T19:01:22.945Z,100835.50
2023-03-15T19:03:52.271Z,100847.84
2023-03-15T19:06:21.372Z,100848.34
2023-03-15T19:08:53.371Z,100850.13
2023-03-15T19:11:21.176Z,100849.66
2023-03-15T19:13:51.485Z,100855.19
2023-03-15T19:16:20.693Z,100874.47
2023-03-15T19:18:49.480Z,100880.75
2023-03-15T19:21:18.793Z,100880.28
2023-03-15T19:23:47.166Z,100883.84
2023-03-15T19:26:14.589Z,100887.53
2023-03-15T19:28:41.880Z,100891.22
2023-03-15T19:31:09.411Z,100887.22
2023-03-15T19:33:37.139Z,100901.63
2023-03-15T19:36:04.971Z,100909.44
2023-03-15T19:38:33.059Z,100913.34
2023-03-15T19:41:04.967Z,100920.22
2023-03-15T19:43:32.650Z,100925.66
2023-03-15T19:46:01.555Z,100920.88
2023-03-15T19:48:28.972Z,100918.94
2023-03-15T19:50:56.402Z,100924.19
2023-03-15T19:53:23.722Z,100921.63
2023-03-15T19:55:53.829Z,100929.59
2023-03-15T19:58:21.246Z,100938.91
2023-03-15T20:00:54.609Z,100935.31
2023-03-15T20:03:21.893Z,100938.50
2023-03-15T20:05:49.160Z,100944.09
2023-03-15T20:08:16.742Z,100960.25
2023-03-15T20:10:44.095Z,100965.56
2023-03-15T20:13:11.547Z,100965.19
2023-03-15T20:15:38.886Z,100962.72
2023-03-15T20:18:08.209Z,100966.06
2023-03-15T20:20:35.648Z,100973.34
2023-03-15T20:23:03.713Z,100971.81
2023-03-15T20:25:31.556Z,100972.59
2023-03-15T20:27:59.255Z,100975.47
2023-03-15T20:30:26.819Z,100980.41
2023-03-15T20:32:54.713Z,100986.59
2023-03-15T20:35:23.405Z,100985.59
2023-03-15T20:37:53.040Z,100997.19
2023-03-15T20:40:20.944Z,100996.47
2023-03-15T20:42:48.476Z,100996.78
2023-03-15T20:45:15.947Z,101002.22
2023-03-15T20:47:43.270Z,101002.50
2023-03-15T20:50:11.923Z,101007.78
2023-03-15T20:52:40.874Z,100997.81
2023-03-15T20:55:09.605Z,101000.84
2023-03-15T20:57:37.119Z,101009.78
2023-03-15T21:00:12.365Z,101011.41
2023-03-15T21:02:41.246Z,101020.25
2023-03-15T21:05:16.170Z,101015.34
2023-03-15T21:07:45.872Z,101012.38
2023-03-15T21:10:13.786Z,101018.75
2023-03-15T21:12:41.694Z,101013.50
2023-03-15T21:15:09.314Z,101014.09
2023-03-15T21:17:36.689Z,101025.56
2023-03-15T21:20:07.200Z,101036.41
2023-03-15T21:22:34.565Z,101038.06
2023-03-15T21:25:02.078Z,101045.81
2023-03-15T21:27:29.698Z,101038.59
2023-03-15T21:29:57.073Z,101040.81
2023-03-15T21:32:24.647Z,101047.06
2023-03-15T21:34:51.945Z,101052.94
2023-03-15T21:37:19.342Z,101066.13
2023-03-15T21:39:46.707Z,101064.63
2023-03-15T21:42:14.032Z,101063.09
2023-03-15T21:44:41.723Z,101064.91
2023-03-15T21:47:09.282Z,101066.34
2023-03-15T21:49:36.571Z,101073.84
2023-03-15T21:52:03.945Z,101077.59
2023-03-15T21:54:31.232Z,101079.19
2023-03-15T21:56:58.590Z,101081.31
2023-03-15T21:59:28.727Z,101080.09
2023-03-15T22:01:57.148Z,101086.09
2023-03-15T22:04:24.821Z,101086.75
2023-03-15T22:06:55.280Z,101083.59
2023-03-15T22:09:23.451Z,101083.38
2023-03-15T22:11:50.894Z,101083.47
2023-03-15T22:14:18.560Z,101086.19
2023-03-15T22:16:46.241Z,101084.88
2023-03-15T22:19:14.482Z,101088.19
2023-03-15T22:21:42.246Z,101090.19
2023-03-15T22:24:10.625Z,101088.88
2023-03-15T22:26:37.966Z,101089.97
2023-03-15T22:29:05.250Z,101104.84
2023-03-15T22:31:32.769Z,101111.53
2023-03-15T22:34:00.088Z,101104.63
2023-03-15T22:36:27.418Z,101099.16
2023-03-15T22:38:54.709Z,101108.28
2023-03-15T22:41:22.160Z,101112.13
2023-03-15T22:43:49.481Z,101109.59
2023-03-15T22:46:16.924Z,101109.09
2023-03-15T22:48:44.511Z,101107.78
2023-03-15T22:51:14.832Z,101098.31
2023-03-15T22:53:42.225Z,101096.06
2023-03-15T22:56:09.685Z,101096.06
2023-03-15T22:58:37.743Z,101102.63
2023-03-15T23:01:05.360Z,101098.47
2023-03-15T23:03:32.783Z,101103.00
2023-03-15T23:06:00.435Z,101105.91
2023-03-15T23:08:28.044Z,101112.94
2023-03-15T23:10:58.265Z,101113.88
2023-03-15T23:13:25.683Z,101118.31
2023-03-15T23:15:54.293Z,101114.19
2023-03-15T23:18:22.103Z,101129.44
2023-03-15T23:20:49.597Z,101116.59
2023-03-15T23:23:17.033Z,101122.31
2023-03-15T23:25:45.926Z,101127.09
2023-03-15T23:28:13.881Z,101134.50
2023-03-15T23:30:41.319Z,101131.72
2023-03-15T23:33:08.796Z,101139.06
2023-03-15T23:35:37.140Z,101141.75
2023-03-15T23:38:04.566Z,101139.44
2023-03-15T23:40:31.876Z,101139.78
2023-03-15T23:42:59.460Z,101147.19
2023-03-15T23:45:29.853Z,101148.69
2023-03-15T23:47:58.030Z,101149.91
2023-03-15T23:50:26.523Z,101152.84
2023-03-15T23:52:55.852Z,101148.78
2023-03-15T23:55:24.022Z,101154.06
2023-03-15T23:57:51.663Z,101155.16
